AirNav   Air Wisconsin Up To $57,000 Bonus
 
 1398 users online  

88FA Tampa Hard Rock Helipad Heliport
Tampa, Florida, USA

GOING TO TAMPA?


FAA INFORMATION EFFECTIVE 30 JANUARY 2020

Location

FAA Identifier: 88FA
Lat/Long: 27-59-43.8600N 082-22-12.5300W
27-59.731000N 082-22.208833W
27.9955167,-82.3701472
(estimated)
Elevation: 87 ft. / 27 m (estimated)
From city: 5 miles NE of TAMPA, FL
Time zone: UTC -5 (UTC -4 during Daylight Saving Time)
Zip code: 33610

Heliport Operations

Heliport use: Private use. Permission required prior to landing
Activation date: 08/2016
Control tower: no
ARTCC: MIAMI CENTER
FSS: SAINT PETERSBURG FLIGHT SERVICE STATION
Attendance: 
Wind indicator: lighted
Segmented circle: no

Heliport Communications

WX AWOS-3 at VDF (1.7 nm NE): 121.125 (813-630-0924)
WX AWOS-3 at TPF (6 nm SW): 118.925 (813-251-6824)
WX ASOS at TPA (9 nm W): PHONE 813-873-7228
WX AWOS-3 at PCM (11 nm E): 120.025 (813-764-8259)
WX ASOS at PIE (18 nm W): PHONE 727-531-3456
WX AWOS-3PT at ZPH (18 nm NE): 118.975 (813-780-0031)
WX AWOS-3PT at LAL (19 nm E): 118.025 (863-834-2030)
WX ASOS at SPG (19 nm SW): 118.875 (727-821-4334)

Nearby radio navigation aids

VOR radial/distance  VOR name  Freq  Var
PIEr077/17.5ST PETERSBURG VORTAC116.4005W
LALr271/18.9LAKELAND VORTAC116.0001E
SRQr021/36.8SARASOTA VOR/DME117.0005W

 
NDB name  Hdg/Dist  Freq  Var  ID
COSME128/9.836805WTP - .--.

Heliport Services

Runway Information

Helipad H1

Dimensions: 55 x 55 ft. / 17 x 17 m
Surface: concrete, in excellent condition
Traffic pattern: leftleft

Heliport Ownership and Management from official FAA records

Ownership: Privately-owned
Owner: SEMINOLE TRIBE OF FLORIDA
6300 STIRLING ROAD
HOLLYWOOD, FL 33024
Phone 863-983-7677
Manager: PEDRO RODRIGUEZ
35201 EAGLES LANDING
CLEWISTON, FL 33440
Phone 954-410-1396

Additional Remarks

HELIPAD IS LOCATED ON THE TOP FLOOR OF THE WINNERS WAY PARKING GARAGE. THE HELIPAD HAS STANDARD HELIPAD MARKINGS ANS LIGHT AS RECOMMENDED IN THE AC 150/5390-2C.
FOR CD CTC TAMPA APCH AT 813-878-2528.

Instrument Procedures

There are no published instrument procedures at 88FA.

Some nearby airports with instrument procedures:

KVDF - Tampa Executive Airport (2 nm NE)
KTPF - Peter O Knight Airport (6 nm SW)
KTPA - Tampa International Airport (9 nm W)
KPCM - Plant City Airport (11 nm E)
KMCF - MacDill Air Force Base (12 nm SW)
KPIE - St Pete-Clearwater International Airport (18 nm W)
KZPH - Zephyrhills Municipal Airport (18 nm NE)
KLAL - Lakeland Linder International Airport (19 nm E)
KSPG - Albert Whitted Airport (19 nm SW)
 
Loc | Ops | Rwys | IFR | FBO | Links
Com | Nav | Svcs | Stats | Notes
Aerial photo
No photo
 
Airport distance calculator
Flying to Tampa Hard Rock Helipad Heliport? Find the distance to fly.

From to 88FA

Sunrise and sunset
Times for 26-Feb-2020
 Local
(UTC-5)
 Zulu
(UTC)
Morning civil twilight06:3511:35
Sunrise06:5811:58
Sunset18:2723:27
Evening civil twilight18:5023:50

Current date and time
Zulu (UTC)  26-Feb-2020 14:40:14
Local (UTC-5)  26-Feb-2020 09:40:14
 
METAR
KVDF 
2nm NE 
261415Z AUTO 19007KT 10SM SCT080 SCT110 22/18 A2993 RMK AO2
KTPF 
6nm SW 
261415Z AUTO 18008KT 10SM BKN100 23/21 A2993 RMK AO2
KTPA 
9nm W 
261353Z 16007KT 10SM FEW025 SCT110 BKN220 23/17 A2992 RMK AO2 SLP130 T02280167
KPCM 
11nm E 
261415Z AUTO 17007KT 10SM SCT075 OVC100 23/21 A2995 RMK AO2
KMCF 
12nm SW 
261356Z AUTO 15012KT 10SM SCT100 22/17 A2991 RMK AO2 SLP132 T02210174 FZRANO $
KPIE 
17nm W 
261353Z 16009KT 10SM CLR 24/18 A2991 RMK AO2 SLP128 T02390178
KZPH 
18nm NE 
261415Z AUTO 17007KT 10SM BKN085 OVC110 22/18 A2994 RMK A02 T02210175
KLAL 
19nm E 
261350Z 17009KT 10SM SCT110 21/16 A2993
KSPG 
20nm SW 
261353Z 18011KT 10SM CLR 22/18 A2990 RMK AO2 SLP125 T02220183
TAF
KTPA 
9nm W 
261139Z 2612/2718 16004KT P6SM SCT020 BKN080 FM261500 17007KT P6SM FEW020 SCT080 BKN250 FM261800 22012G18KT P6SM VCSH SCT025 BKN080 FM262200 28012G18KT 6SM -RA VCTS SCT007CB OVC025 TEMPO 2622/2702 3SM SHRA BKN007 FM270200 30012KT P6SM VCSH SCT007 OVC015 FM270600 33012G18KT P6SM SCT015 BKN040 FM271500 33012G18KT P6SM SCT040
KMCF 
12nm SW 
260900Z 2609/2715 20006KT 9999 BKN040 BKN080 QNH2990INS BECMG 2613/2614 20009KT 9999 SCT050 BKN065 QNH2990INS BECMG 2621/2622 33010G20KT 8000 SHRA BKN035 OVC065 QNH2988INS TEMPO 2700/2705 33015G25KT 1600 +SHRA BKN020 BECMG 2709/2710 34010G20KT 9999 VCSH BKN020 QNH3006INS BECMG 2713/2714 34015G25KT 9999 NSW SCT040 QNH3013INS TX24/2618Z TN15/2708Z
KPIE 
17nm W 
261139Z 2612/2712 16007KT P6SM SCT020 BKN080 FM261500 17011KT P6SM FEW020 SCT080 BKN250 FM261800 22015G25KT P6SM VCSH SCT025 BKN080 FM262200 28013G20KT 6SM -RA VCTS SCT007CB OVC025 TEMPO 2622/2702 3SM SHRA BKN007 FM270200 31012G18KT P6SM VCSH SCT007 OVC015 FM270600 33015G25KT P6SM SCT015 BKN040
KLAL 
19nm E 
261139Z 2612/2712 VRB04KT P6SM SCT020 BKN080 FM261500 16007KT P6SM SCT025 BKN080 FM261800 21014G22KT P6SM VCSH SCT025 BKN080 FM262300 28012G18KT 6SM -RA VCTS SCT007CB OVC025 TEMPO 2623/2703 3SM SHRA BKN007 FM270300 30008KT P6SM VCSH SCT007 OVC015 FM270700 33012G18KT P6SM SCT015 BKN040
NOTAMs
Click for the latest NOTAMs
NOTAMs are issued by the DoD/FAA and will open in a separate window not controlled by AirNav.

 

 
 

Would you like to see your business listed on this page?

 If your business provides an interesting product or service to pilots, flight crews, aircraft, or users of the Tampa Hard Rock Helipad Heliport, you should consider listing it here.  To start the listing process, click on the button below
 
Add a business
 

Other Pages about Tampa Hard Rock Helipad Heliport

Update a link
 
Copyright © AirNav, LLC. All rights reserved. Privacy Policy  Contact